Weatherford, Texas
Current Conditions -  °F | °C
As of 1:53 PM on Wednesday 26 Nov 2014 (Local Time) from KMWL Reporting Station
Clear Clear  
Wind Chill: 62°   Ceiling: Unl
Heat Index: 62°   Visibility: 10mi
Dew Point: 34°   Wind: 13mph
Humidity: 35%   Direction: 340°NNW
Pressure: 30.19"   Gusts: NA
Location:  32.76°N, 97.8°W
Report Text: KMWL 261953Z AUTO 34011KT 10SM CLR 17/01 A3019 RMK AO2 SLP220 T01670011 $
Loading
Personal Weather Stations






























Interactive Weather Map New forecast layout! Learn more

10-Day Weather Forecast

Advertisements
Track Severe Weather on mobile